createdAt,value
2023-05-05T00:00:45.241Z,3484.00
2023-05-05T00:01:45.253Z,3514.00
2023-05-05T00:02:45.339Z,3535.00
2023-05-05T00:03:45.339Z,3506.00
2023-05-05T00:04:45.239Z,3454.00
2023-05-05T00:05:45.256Z,3432.00
2023-05-05T00:06:45.249Z,3436.00
2023-05-05T00:07:45.261Z,3436.00
2023-05-05T00:08:45.266Z,3442.00
2023-05-05T00:09:45.284Z,3423.00
2023-05-05T00:10:45.302Z,3430.00
2023-05-05T00:11:45.288Z,3464.00
2023-05-05T00:12:45.322Z,3483.00
2023-05-05T00:13:45.299Z,3462.00
2023-05-05T00:14:45.300Z,3437.00
2023-05-05T00:15:45.308Z,3462.00
2023-05-05T00:16:45.342Z,3486.00
2023-05-05T00:17:45.384Z,3444.00
2023-05-05T00:18:45.345Z,3527.00
2023-05-05T00:19:45.358Z,3596.00
2023-05-05T00:20:45.385Z,3751.00
2023-05-05T00:21:45.360Z,3803.00
2023-05-05T00:22:45.388Z,3793.00
2023-05-05T00:23:45.371Z,3741.00
2023-05-05T00:24:45.388Z,3700.00
2023-05-05T00:25:45.420Z,3697.00
2023-05-05T00:26:45.406Z,3678.00
2023-05-05T00:27:45.419Z,3703.00
2023-05-05T00:28:45.425Z,3705.00
2023-05-05T00:29:45.427Z,3702.00
2023-05-05T00:30:45.477Z,3760.00
2023-05-05T00:31:45.476Z,3743.00
2023-05-05T00:32:45.546Z,3712.00
2023-05-05T00:33:45.491Z,3678.00
2023-05-05T00:34:45.481Z,3709.00
2023-05-05T00:35:45.499Z,3769.00
2023-05-05T00:36:45.508Z,3757.00
2023-05-05T00:37:45.529Z,3724.00
2023-05-05T00:38:45.553Z,3692.00
2023-05-05T00:39:45.554Z,3657.00
2023-05-05T00:40:45.586Z,3660.00
2023-05-05T00:41:45.566Z,3661.00
2023-05-05T00:42:45.581Z,3626.00
2023-05-05T00:43:45.600Z,3614.00
2023-05-05T00:44:45.596Z,3576.00
2023-05-05T00:45:45.587Z,3558.00
2023-05-05T00:46:45.688Z,3550.00
2023-05-05T00:47:45.658Z,3571.00
2023-05-05T00:48:45.648Z,3605.00
2023-05-05T00:49:45.635Z,3700.00
2023-05-05T00:50:45.646Z,3737.00
2023-05-05T00:51:45.646Z,3742.00
2023-05-05T00:52:45.655Z,3743.00
2023-05-05T00:53:45.655Z,3757.00
2023-05-05T00:54:45.662Z,3785.00
2023-05-05T00:55:45.673Z,3789.00
2023-05-05T00:56:45.691Z,3815.00
2023-05-05T00:57:45.679Z,3937.00
2023-05-05T00:58:45.703Z,4001.00
2023-05-05T00:59:45.673Z,4013.00
2023-05-05T01:00:45.698Z,3994.00
2023-05-05T01:01:45.720Z,4009.00
2023-05-05T01:02:45.791Z,4018.00
2023-05-05T01:03:45.804Z,4061.00
2023-05-05T01:04:45.693Z,4053.00
2023-05-05T01:05:45.674Z,4032.00
2023-05-05T01:06:45.696Z,4031.00
2023-05-05T01:07:45.696Z,4010.00
2023-05-05T01:08:45.682Z,4005.00
2023-05-05T01:09:45.683Z,3995.00
2023-05-05T01:10:45.696Z,4014.00
2023-05-05T01:11:45.674Z,4026.00
2023-05-05T01:12:45.716Z,4058.00
2023-05-05T01:13:45.696Z,4058.00
2023-05-05T01:14:45.712Z,4068.00
2023-05-05T01:15:45.695Z,4048.00
2023-05-05T01:16:45.681Z,4009.00
2023-05-05T01:17:45.690Z,4020.00
2023-05-05T01:18:45.676Z,4022.00
2023-05-05T01:19:45.669Z,4044.00
2023-05-05T01:20:45.675Z,4098.00
2023-05-05T01:21:45.665Z,4110.00
2023-05-05T01:22:45.665Z,4133.00
2023-05-05T01:23:45.711Z,4198.00
2023-05-05T01:24:45.737Z,4177.00
2023-05-05T01:25:45.724Z,4105.00
2023-05-05T01:26:45.719Z,4101.00
2023-05-05T01:27:45.726Z,4077.00
2023-05-05T01:28:45.709Z,4086.00
2023-05-05T01:29:45.710Z,4103.00
2023-05-05T01:30:45.695Z,4060.00
2023-05-05T01:31:45.740Z,4063.00
2023-05-05T01:32:45.833Z,4073.00
2023-05-05T01:33:45.710Z,4085.00
2023-05-05T01:34:45.703Z,4115.00
2023-05-05T01:35:45.787Z,4135.00
2023-05-05T01:36:45.724Z,4152.00
2023-05-05T01:37:45.716Z,4152.00
2023-05-05T01:38:45.742Z,4172.00
2023-05-05T01:39:45.747Z,4184.00
2023-05-05T01:40:45.768Z,4212.00
2023-05-05T01:41:45.733Z,4133.00
2023-05-05T01:42:45.754Z,4162.00
2023-05-05T01:43:45.774Z,4191.00
2023-05-05T01:44:45.800Z,4204.00
2023-05-05T01:45:45.879Z,4203.00
2023-05-05T01:46:45.833Z,4239.00
2023-05-05T01:47:45.902Z,4276.00
2023-05-05T01:48:45.865Z,4298.00
2023-05-05T01:49:45.869Z,4311.00
2023-05-05T01:50:45.900Z,4297.00
2023-05-05T01:51:45.907Z,4310.00
2023-05-05T01:52:45.926Z,4259.00
2023-05-05T01:53:45.934Z,4264.00
2023-05-05T01:54:45.937Z,4272.00
2023-05-05T01:55:46.005Z,4249.00
2023-05-05T01:56:45.982Z,4269.00
2023-05-05T01:57:45.999Z,4278.00
2023-05-05T01:58:46.057Z,4291.00
2023-05-05T01:59:46.085Z,4303.00
2023-05-05T02:00:46.100Z,4304.00
2023-05-05T02:01:46.135Z,4283.00
2023-05-05T02:02:46.204Z,4307.00
2023-05-05T02:03:46.154Z,4297.00
2023-05-05T02:04:46.217Z,4284.00
2023-05-05T02:05:46.264Z,4244.00
2023-05-05T02:06:46.274Z,4248.00
2023-05-05T02:07:46.291Z,4277.00
2023-05-05T02:08:46.305Z,4257.00
2023-05-05T02:09:46.343Z,4273.00
2023-05-05T02:10:46.376Z,4308.00
2023-05-05T02:11:46.401Z,4320.00
2023-05-05T02:12:46.441Z,4352.00
2023-05-05T02:13:46.476Z,4339.00
2023-05-05T02:14:46.445Z,4338.00
2023-05-05T02:15:46.505Z,4349.00
2023-05-05T02:16:46.458Z,4328.00
2023-05-05T02:17:46.498Z,4324.00
2023-05-05T02:18:46.480Z,4313.00
2023-05-05T02:19:46.480Z,4313.00
2023-05-05T02:20:46.530Z,4296.00
2023-05-05T02:21:46.542Z,4303.00
2023-05-05T02:22:46.612Z,4265.00
2023-05-05T02:23:46.619Z,4297.00
2023-05-05T02:24:46.617Z,4332.00
2023-05-05T02:25:46.659Z,4320.00
2023-05-05T02:26:46.683Z,4300.00
2023-05-05T02:27:46.735Z,4261.00
2023-05-05T02:28:46.738Z,4260.00
2023-05-05T02:29:46.740Z,4261.00
2023-05-05T02:30:46.837Z,4238.00
2023-05-05T02:31:46.928Z,4290.00
2023-05-05T02:32:46.921Z,4285.00
2023-05-05T02:33:46.906Z,4329.00
2023-05-05T02:34:46.920Z,4358.00
2023-05-05T02:35:46.962Z,4285.00
2023-05-05T02:36:47.033Z,4283.00
2023-05-05T02:37:47.027Z,4273.00
2023-05-05T02:38:47.054Z,4254.00
2023-05-05T02:39:47.093Z,4221.00
2023-05-05T02:40:47.119Z,4210.00
2023-05-05T02:41:47.161Z,4149.00
2023-05-05T02:42:47.205Z,4168.00
2023-05-05T02:43:47.237Z,4256.00
2023-05-05T02:44:47.262Z,4335.00
2023-05-05T02:45:47.287Z,4295.00
2023-05-05T02:46:47.382Z,4308.00
2023-05-05T02:47:47.361Z,4290.00
2023-05-05T02:48:47.345Z,4293.00
2023-05-05T02:49:47.360Z,4265.00
2023-05-05T02:50:47.401Z,4306.00
2023-05-05T02:51:47.402Z,4270.00
2023-05-05T02:52:47.457Z,4304.00
2023-05-05T02:53:47.482Z,4283.00
2023-05-05T02:54:47.494Z,4274.00
2023-05-05T02:55:47.538Z,4288.00
2023-05-05T02:56:47.574Z,4296.00
2023-05-05T02:57:47.592Z,4306.00
2023-05-05T02:58:47.666Z,4299.00
2023-05-05T02:59:47.662Z,4258.00
2023-05-05T03:00:47.697Z,4313.00
2023-05-05T03:01:47.829Z,4273.00
2023-05-05T03:02:47.973Z,4250.00
2023-05-05T03:03:48.057Z,4235.00
2023-05-05T03:04:47.896Z,4232.00
2023-05-05T03:05:47.921Z,4208.00
2023-05-05T03:06:47.964Z,4219.00
2023-05-05T03:07:47.999Z,4171.00
2023-05-05T03:08:48.033Z,4146.00
2023-05-05T03:09:48.077Z,4126.00
2023-05-05T03:10:48.143Z,4184.00
2023-05-05T03:11:48.285Z,4228.00
2023-05-05T03:12:48.301Z,4263.00
2023-05-05T03:13:48.281Z,4258.00
2023-05-05T03:14:48.322Z,4280.00
2023-05-05T03:15:48.390Z,4200.00
2023-05-05T03:16:48.370Z,4140.00
2023-05-05T03:17:48.422Z,4113.00
2023-05-05T03:18:48.460Z,4109.00
2023-05-05T03:19:48.466Z,4115.00
2023-05-05T03:20:48.564Z,4094.00
2023-05-05T03:21:48.569Z,4130.00
2023-05-05T03:22:48.603Z,4158.00
2023-05-05T03:23:48.670Z,4130.00
2023-05-05T03:24:48.706Z,4154.00
2023-05-05T03:25:48.793Z,4137.00
2023-05-05T03:26:48.830Z,4120.00
2023-05-05T03:27:48.903Z,4181.00
2023-05-05T03:28:48.951Z,4202.00
2023-05-05T03:29:48.996Z,4185.00
2023-05-05T03:30:49.071Z,4163.00
2023-05-05T03:31:49.134Z,4179.00
2023-05-05T03:32:49.162Z,4202.00
2023-05-05T03:33:49.183Z,4213.00
2023-05-05T03:34:49.208Z,4220.00
2023-05-05T03:35:49.313Z,4229.00
2023-05-05T03:36:49.326Z,4208.00
2023-05-05T03:37:49.370Z,4204.00
2023-05-05T03:38:49.397Z,4242.00
2023-05-05T03:39:49.432Z,4228.00
2023-05-05T03:40:49.540Z,4259.00
2023-05-05T03:41:49.550Z,4290.00
2023-05-05T03:42:49.603Z,4295.00
2023-05-05T03:43:49.611Z,4301.00
2023-05-05T03:44:49.669Z,4302.00
2023-05-05T03:45:49.711Z,4298.00
2023-05-05T03:46:49.703Z,4298.00
2023-05-05T03:47:49.804Z,4277.00
2023-05-05T03:48:49.771Z,4231.00
2023-05-05T03:49:49.824Z,4224.00
2023-05-05T03:50:49.869Z,4195.00
2023-05-05T03:51:49.904Z,4160.00
2023-05-05T03:52:49.932Z,4163.00
2023-05-05T03:53:49.963Z,4189.00
2023-05-05T03:54:49.979Z,4170.00
2023-05-05T03:55:50.023Z,4192.00
2023-05-05T03:56:50.071Z,4207.00
2023-05-05T03:57:50.125Z,4200.00
2023-05-05T03:58:50.122Z,4185.00
2023-05-05T03:59:50.180Z,4192.00
2023-05-05T04:00:50.196Z,4207.00
2023-05-05T04:01:50.217Z,4192.00
2023-05-05T04:02:50.329Z,4173.00
2023-05-05T04:03:50.302Z,4176.00
2023-05-05T04:04:50.300Z,4196.00
2023-05-05T04:05:50.334Z,4178.00
2023-05-05T04:06:50.346Z,4169.00
2023-05-05T04:07:50.370Z,4135.00
2023-05-05T04:08:50.377Z,4114.00
2023-05-05T04:09:50.383Z,4079.00
2023-05-05T04:10:50.412Z,4080.00
2023-05-05T04:11:50.408Z,4005.00
2023-05-05T04:12:50.459Z,3979.00
2023-05-05T04:13:50.472Z,3976.00
2023-05-05T04:14:50.519Z,3990.00
2023-05-05T04:15:50.549Z,4019.00
2023-05-05T04:16:50.575Z,4024.00
2023-05-05T04:17:50.694Z,4066.00
2023-05-05T04:18:50.626Z,4082.00
2023-05-05T04:19:50.648Z,4126.00
2023-05-05T04:20:50.665Z,4143.00
2023-05-05T04:21:50.704Z,4142.00
2023-05-05T04:22:52.657Z,4127.00
2023-05-05T04:23:50.757Z,4125.00
2023-05-05T04:24:50.757Z,4060.00
2023-05-05T04:25:50.780Z,4029.00
2023-05-05T04:26:50.810Z,4004.00
2023-05-05T04:27:50.840Z,3912.00
2023-05-05T04:28:50.847Z,3941.00
2023-05-05T04:29:50.866Z,3931.00
2023-05-05T04:30:50.890Z,3896.00
2023-05-05T04:31:50.937Z,3865.00
2023-05-05T04:32:51.020Z,3847.00
2023-05-05T04:33:50.977Z,3790.00
2023-05-05T04:34:51.019Z,3798.00
2023-05-05T04:35:51.032Z,3802.00
2023-05-05T04:36:51.090Z,3816.00
2023-05-05T04:37:51.121Z,3791.00
2023-05-05T04:38:51.201Z,3806.00
2023-05-05T04:39:51.178Z,3799.00
2023-05-05T04:40:51.216Z,3834.00
2023-05-05T04:41:51.234Z,3801.00
2023-05-05T04:42:51.280Z,3784.00
2023-05-05T04:43:51.282Z,3732.00
2023-05-05T04:44:51.309Z,3737.00
2023-05-05T04:45:51.354Z,3782.00
2023-05-05T04:46:51.403Z,3803.00
2023-05-05T04:47:51.524Z,3780.00
2023-05-05T04:48:51.431Z,3786.00
2023-05-05T04:49:51.496Z,3830.00
2023-05-05T04:50:51.503Z,3821.00
2023-05-05T04:51:51.560Z,3775.00
2023-05-05T04:52:52.666Z,3763.00
2023-05-05T04:53:51.637Z,3713.00
2023-05-05T04:54:51.702Z,3709.00
2023-05-05T04:55:51.743Z,3720.00
2023-05-05T04:56:51.768Z,3699.00
2023-05-05T04:57:51.868Z,3724.00
2023-05-05T04:58:51.843Z,3709.00
2023-05-05T04:59:51.878Z,3724.00
2023-05-05T05:00:51.919Z,3755.00
2023-05-05T05:01:52.011Z,3770.00
2023-05-05T05:02:52.102Z,3807.00
2023-05-05T05:03:52.208Z,3862.00
2023-05-05T05:04:52.167Z,3893.00
2023-05-05T05:05:52.223Z,3908.00
2023-05-05T05:06:52.269Z,3876.00
2023-05-05T05:07:52.351Z,3882.00
2023-05-05T05:08:52.391Z,3888.00
2023-05-05T05:09:52.466Z,3910.00
2023-05-05T05:10:52.552Z,3915.00
2023-05-05T05:11:52.599Z,3981.00
2023-05-05T05:12:52.717Z,4027.00
2023-05-05T05:13:52.715Z,4041.00
2023-05-05T05:14:52.776Z,4072.00
2023-05-05T05:15:52.826Z,4111.00
2023-05-05T05:16:53.012Z,4123.00
2023-05-05T05:17:52.986Z,4157.00
2023-05-05T05:18:53.001Z,4202.00
2023-05-05T05:19:53.029Z,4225.00
2023-05-05T05:20:53.077Z,4268.00
2023-05-05T05:21:53.132Z,4317.00
2023-05-05T05:22:53.180Z,4378.00
2023-05-05T05:23:53.251Z,4441.00
2023-05-05T05:24:53.280Z,4447.00
2023-05-05T05:25:53.345Z,4447.00
2023-05-05T05:26:53.388Z,4472.00
2023-05-05T05:28:06.094Z,4472.00
2023-05-05T05:28:54.454Z,4473.00
2023-05-05T05:29:53.457Z,4473.00
2023-05-05T05:30:53.444Z,4481.00
2023-05-05T05:31:53.440Z,4340.00
2023-05-05T05:32:53.440Z,4117.00
2023-05-05T05:33:53.405Z,3993.00
2023-05-05T05:34:53.408Z,3922.00
2023-05-05T05:35:53.385Z,3919.00
2023-05-05T05:36:53.383Z,3956.00
2023-05-05T05:37:53.370Z,3997.00
2023-05-05T05:38:53.754Z,3966.00
2023-05-05T05:39:53.364Z,4071.00
2023-05-05T05:40:53.354Z,4120.00
2023-05-05T05:41:53.348Z,4113.00
2023-05-05T05:42:53.359Z,4134.00
2023-05-05T05:43:53.334Z,4162.00
2023-05-05T05:44:53.340Z,4134.00
2023-05-05T05:45:53.376Z,4118.00
2023-05-05T05:46:53.381Z,4027.00
2023-05-05T05:47:53.446Z,3981.00
2023-05-05T05:48:53.397Z,3882.00
2023-05-05T05:49:53.388Z,3858.00
2023-05-05T05:50:53.441Z,3748.00
2023-05-05T05:51:53.416Z,3767.00
2023-05-05T05:52:53.389Z,3798.00
2023-05-05T05:53:53.415Z,3909.00
2023-05-05T05:54:53.428Z,3900.00
2023-05-05T05:55:53.475Z,4097.00
2023-05-05T05:56:53.537Z,4184.00
2023-05-05T05:57:53.581Z,4248.00
2023-05-05T05:58:53.653Z,4289.00
2023-05-05T05:59:53.690Z,4305.00
2023-05-05T06:00:53.754Z,4269.00
2023-05-05T06:01:53.792Z,4323.00
2023-05-05T06:02:53.930Z,4281.00
2023-05-05T06:03:54.379Z,4253.00
2023-05-05T06:04:53.882Z,4304.00
2023-05-05T06:05:53.915Z,4262.00
2023-05-05T06:06:53.947Z,4292.00
2023-05-05T06:07:54.048Z,4320.00
2023-05-05T06:08:54.027Z,4307.00
2023-05-05T06:09:54.068Z,4319.00
2023-05-05T06:10:54.076Z,4374.00
2023-05-05T06:11:54.112Z,4424.00
2023-05-05T06:12:54.191Z,4471.00
2023-05-05T06:13:54.167Z,4472.00
2023-05-05T06:14:54.178Z,4506.00
2023-05-05T06:15:54.237Z,4508.00
2023-05-05T06:16:54.193Z,4557.00
2023-05-05T06:17:54.248Z,4549.00
2023-05-05T06:18:54.309Z,4552.00
2023-05-05T06:19:54.608Z,4557.00
2023-05-05T06:20:54.253Z,4568.00
2023-05-05T06:21:54.269Z,4560.00
2023-05-05T06:22:54.273Z,4564.00
2023-05-05T06:23:54.276Z,4529.00
2023-05-05T06:24:54.285Z,4529.00
2023-05-05T06:25:54.276Z,4500.00
2023-05-05T06:26:54.271Z,4476.00
2023-05-05T06:27:54.280Z,4500.00
2023-05-05T06:28:54.332Z,4498.00
2023-05-05T06:29:54.277Z,4499.00
2023-05-05T06:30:54.294Z,4421.00
2023-05-05T06:31:54.309Z,4410.00
2023-05-05T06:32:54.394Z,4001.00
2023-05-05T06:33:54.296Z,3694.00
2023-05-05T06:34:54.311Z,3539.00
2023-05-05T06:35:54.344Z,3522.00
2023-05-05T06:36:54.472Z,3645.00
2023-05-05T06:37:54.399Z,3681.00
2023-05-05T06:38:54.427Z,3802.00
2023-05-05T06:39:54.452Z,3887.00
2023-05-05T06:40:54.482Z,4005.00
2023-05-05T06:41:54.505Z,4051.00
2023-05-05T06:42:54.529Z,4067.00
2023-05-05T06:43:54.786Z,4101.00
2023-05-05T06:44:54.571Z,4112.00
2023-05-05T06:45:54.595Z,4143.00
2023-05-05T06:46:54.802Z,4108.00
2023-05-05T06:47:54.610Z,4101.00
2023-05-05T06:48:54.591Z,4133.00
2023-05-05T06:49:54.610Z,4174.00
2023-05-05T06:50:54.654Z,3955.00
2023-05-05T06:51:54.720Z,3794.00
2023-05-05T06:52:54.759Z,3606.00
2023-05-05T06:53:55.290Z,3347.00
2023-05-05T06:54:54.800Z,3318.00
2023-05-05T06:55:55.006Z,3304.00
2023-05-05T06:56:54.833Z,3474.00
2023-05-05T06:57:54.826Z,3417.00
2023-05-05T06:58:54.852Z,3306.00
2023-05-05T06:59:54.850Z,3155.00
2023-05-05T07:00:54.982Z,3309.00
2023-05-05T07:01:54.874Z,3333.00
2023-05-05T07:02:54.918Z,3426.00
2023-05-05T07:03:54.949Z,2847.00
2023-05-05T07:04:54.964Z,2365.00
2023-05-05T07:05:55.024Z,2101.00
2023-05-05T07:06:55.068Z,1915.00
2023-05-05T07:07:55.116Z,1761.00
2023-05-05T07:08:55.407Z,1629.00
2023-05-05T07:09:55.086Z,1795.00
2023-05-05T07:10:55.116Z,2113.00
2023-05-05T07:11:55.353Z,2116.00
2023-05-05T07:12:55.267Z,2332.00
2023-05-05T07:13:55.282Z,2299.00
2023-05-05T07:14:55.323Z,2292.00
2023-05-05T07:15:55.313Z,2504.00
2023-05-05T07:16:55.455Z,2581.00
2023-05-05T07:17:55.476Z,2558.00
2023-05-05T07:18:55.417Z,2592.00
2023-05-05T07:19:55.409Z,2611.00
2023-05-05T07:20:55.422Z,2740.00
2023-05-05T07:21:55.451Z,2819.00
2023-05-05T07:22:55.468Z,2869.00
2023-05-05T07:23:55.454Z,2868.00
2023-05-05T07:24:55.472Z,2904.00
2023-05-05T07:25:55.458Z,2899.00
2023-05-05T07:26:55.455Z,2780.00
2023-05-05T07:27:55.666Z,2953.00
2023-05-05T07:29:23.149Z,500.00
2023-05-05T07:30:23.219Z,500.00
2023-05-05T07:31:22.963Z,500.00
2023-05-05T07:32:23.224Z,500.00
2023-05-05T07:33:22.931Z,500.00
2023-05-05T07:34:22.944Z,536.00
2023-05-05T07:35:22.919Z,568.00
2023-05-05T07:36:22.918Z,601.00
2023-05-05T07:37:23.002Z,634.00
2023-05-05T07:38:22.896Z,654.00
2023-05-05T07:39:22.909Z,660.00
2023-05-05T07:40:22.905Z,692.00
2023-05-05T07:41:22.887Z,737.00
2023-05-05T07:42:22.900Z,772.00
2023-05-05T07:43:22.926Z,767.00
2023-05-05T07:44:22.876Z,755.00
2023-05-05T07:45:22.878Z,744.00
2023-05-05T07:46:22.911Z,765.00
2023-05-05T07:47:22.877Z,802.00
2023-05-05T07:48:22.838Z,751.00
2023-05-05T07:49:23.147Z,757.00
2023-05-05T07:50:22.847Z,763.00
2023-05-05T07:51:22.819Z,781.00
2023-05-05T07:52:33.211Z,769.00
2023-05-05T07:53:23.835Z,771.00
2023-05-05T07:54:23.139Z,775.00
2023-05-05T07:55:22.797Z,780.00
2023-05-05T07:56:22.803Z,767.00
2023-05-05T07:57:22.786Z,759.00
2023-05-05T07:58:22.790Z,750.00
2023-05-05T07:59:23.207Z,756.00
2023-05-05T08:00:22.793Z,742.00
2023-05-05T08:01:22.779Z,749.00
2023-05-05T08:02:22.846Z,733.00
2023-05-05T08:03:22.947Z,743.00
2023-05-05T08:04:22.799Z,723.00
2023-05-05T08:05:22.746Z,705.00
2023-05-05T08:06:22.735Z,721.00
2023-05-05T08:07:22.726Z,738.00
2023-05-05T08:08:22.749Z,737.00
2023-05-05T08:09:23.180Z,766.00
2023-05-05T08:10:22.755Z,778.00
2023-05-05T08:11:22.785Z,812.00
2023-05-05T08:12:22.836Z,778.00
2023-05-05T08:13:22.919Z,792.00
2023-05-05T08:14:22.919Z,762.00
2023-05-05T08:15:22.993Z,792.00
2023-05-05T08:16:22.999Z,771.00
2023-05-05T08:17:23.121Z,791.00
2023-05-05T08:18:22.974Z,784.00
2023-05-05T08:19:29.292Z,780.00
2023-05-05T08:20:24.002Z,720.00
2023-05-05T08:21:22.972Z,695.00
2023-05-05T08:22:22.986Z,622.00
2023-05-05T08:23:22.984Z,624.00
2023-05-05T08:24:23.167Z,400.00
2023-05-05T08:25:22.956Z,400.00
2023-05-05T08:26:22.992Z,400.00
2023-05-05T08:27:22.926Z,400.00
2023-05-05T08:28:22.936Z,400.00
2023-05-05T08:29:22.924Z,400.00
2023-05-05T08:30:22.906Z,400.00
2023-05-05T08:31:23.034Z,400.00
2023-05-05T08:32:22.964Z,400.00
2023-05-05T08:33:23.032Z,400.00
2023-05-05T08:34:23.088Z,400.00
2023-05-05T08:35:23.140Z,400.00
2023-05-05T08:36:23.188Z,400.00
2023-05-05T08:37:23.246Z,400.00
2023-05-05T08:38:23.291Z,400.00
2023-05-05T08:39:23.329Z,400.00
2023-05-05T08:40:23.438Z,400.00
2023-05-05T08:41:23.418Z,400.00
2023-05-05T08:42:36.112Z,404.00
2023-05-05T08:43:24.454Z,407.00
2023-05-05T08:44:23.452Z,427.00
2023-05-05T08:45:23.460Z,474.00
2023-05-05T08:46:23.463Z,566.00
2023-05-05T08:47:23.822Z,666.00
2023-05-05T08:48:23.421Z,573.00
2023-05-05T08:49:23.430Z,517.00
2023-05-05T08:50:23.422Z,499.00
2023-05-05T08:51:23.403Z,533.00
2023-05-05T08:52:23.471Z,605.00
2023-05-05T08:53:23.402Z,777.00
2023-05-05T08:54:23.712Z,1089.00
2023-05-05T08:55:23.376Z,637.00
2023-05-05T08:56:23.364Z,631.00
2023-05-05T08:57:23.381Z,536.00
2023-05-05T08:58:23.387Z,500.00
2023-05-05T08:59:23.373Z,530.00
2023-05-05T09:00:23.414Z,524.00
2023-05-05T09:01:23.412Z,497.00
2023-05-05T09:02:23.388Z,488.00
2023-05-05T09:03:23.509Z,499.00
2023-05-05T09:04:23.477Z,500.00
2023-05-05T09:05:23.315Z,556.00
2023-05-05T09:06:23.332Z,568.00
2023-05-05T09:07:23.348Z,628.00
2023-05-05T09:08:23.355Z,753.00
2023-05-05T09:09:23.348Z,977.00
2023-05-05T09:10:23.370Z,1092.00
2023-05-05T09:11:23.376Z,1016.00
2023-05-05T09:12:23.389Z,1258.00
2023-05-05T09:13:23.390Z,1589.00
2023-05-05T09:14:23.406Z,1863.00
2023-05-05T09:15:23.381Z,1472.00
2023-05-05T09:16:23.423Z,1147.00
2023-05-05T09:17:23.413Z,907.00
2023-05-05T09:18:23.381Z,897.00
2023-05-05T09:19:23.458Z,1097.00
2023-05-05T09:20:23.392Z,1013.00
2023-05-05T09:21:23.380Z,1007.00
2023-05-05T09:22:23.414Z,1164.00
2023-05-05T09:23:23.419Z,1361.00
2023-05-05T09:24:23.481Z,1282.00
2023-05-05T09:25:23.501Z,1081.00
2023-05-05T09:26:23.510Z,861.00
2023-05-05T09:27:23.552Z,779.00
2023-05-05T09:28:23.524Z,1207.00
2023-05-05T09:29:23.522Z,1153.00
2023-05-05T09:30:23.543Z,964.00
2023-05-05T09:31:23.616Z,1093.00
2023-05-05T09:32:23.712Z,659.00
2023-05-05T09:33:23.696Z,783.00
2023-05-05T09:34:23.640Z,1080.00
2023-05-05T09:35:23.734Z,1258.00
2023-05-05T09:36:23.694Z,1414.00
2023-05-05T09:37:23.715Z,1852.00
2023-05-05T09:38:24.224Z,2110.00
2023-05-05T09:39:23.785Z,2210.00
2023-05-05T09:40:23.801Z,2328.00
2023-05-05T09:41:23.842Z,2374.00
2023-05-05T09:42:23.863Z,2430.00
2023-05-05T09:43:23.895Z,2500.00
2023-05-05T09:44:23.903Z,2561.00
2023-05-05T09:45:23.930Z,2589.00
2023-05-05T09:46:23.980Z,2615.00
2023-05-05T09:47:29.860Z,2616.00
2023-05-05T09:48:24.988Z,2617.00
2023-05-05T09:49:23.960Z,2629.00
2023-05-05T09:50:23.957Z,2673.00
2023-05-05T09:51:24.003Z,2748.00
2023-05-05T09:52:23.931Z,2851.00
2023-05-05T09:53:23.934Z,2965.00
2023-05-05T09:54:23.932Z,3031.00
2023-05-05T09:55:23.909Z,3114.00
2023-05-05T09:56:23.907Z,3164.00
2023-05-05T09:57:23.903Z,3226.00
2023-05-05T09:58:24.014Z,3296.00
2023-05-05T09:59:23.903Z,3280.00
2023-05-05T10:00:23.886Z,3269.00
2023-05-05T10:01:23.957Z,3290.00
2023-05-05T10:02:23.874Z,3251.00
2023-05-05T10:03:23.864Z,3224.00
2023-05-05T10:04:24.255Z,3175.00
2023-05-05T10:05:23.876Z,3148.00
2023-05-05T10:06:23.840Z,2936.00
2023-05-05T10:07:23.909Z,2876.00
2023-05-05T10:08:23.838Z,2897.00
2023-05-05T10:09:23.894Z,2811.00
2023-05-05T10:10:23.824Z,2836.00
2023-05-05T10:11:23.806Z,2864.00
2023-05-05T10:12:23.800Z,2923.00
2023-05-05T10:13:23.833Z,2938.00
2023-05-05T10:14:23.858Z,2996.00
2023-05-05T10:15:23.799Z,2998.00
2023-05-05T10:16:23.825Z,2986.00
2023-05-05T10:17:23.790Z,2929.00
2023-05-05T10:18:23.826Z,2920.00
2023-05-05T10:19:23.822Z,2894.00
2023-05-05T10:20:23.764Z,2856.00
2023-05-05T10:21:23.773Z,2780.00
2023-05-05T10:22:23.749Z,2431.00
2023-05-05T10:23:23.824Z,2077.00
2023-05-05T10:24:24.216Z,1946.00
2023-05-05T10:25:23.769Z,1748.00
2023-05-05T10:26:23.768Z,1250.00
2023-05-05T10:27:23.791Z,1256.00
2023-05-05T10:28:23.820Z,1267.00
2023-05-05T10:29:23.855Z,1354.00
2023-05-05T10:30:23.840Z,1519.00
2023-05-05T10:31:26.560Z,1711.00
2023-05-05T10:32:50.966Z,1843.00
2023-05-05T10:33:30.768Z,1849.00
2023-05-05T10:34:24.896Z,1852.00
2023-05-05T10:35:23.831Z,1898.00
2023-05-05T10:36:24.720Z,2022.00
2023-05-05T10:37:23.808Z,2212.00
2023-05-05T10:38:25.541Z,2490.00
2023-05-05T10:39:23.876Z,1868.00
2023-05-05T10:40:23.789Z,1962.00
2023-05-05T10:41:23.816Z,2155.00
2023-05-05T10:42:23.788Z,2455.00
2023-05-05T10:43:23.811Z,2870.00
2023-05-05T10:44:23.817Z,2967.00
2023-05-05T10:45:23.821Z,3026.00
2023-05-05T10:46:23.838Z,3040.00
2023-05-05T10:47:23.801Z,3086.00
2023-05-05T10:48:23.783Z,3071.00
2023-05-05T10:49:23.778Z,3093.00
2023-05-05T10:50:23.737Z,3052.00
2023-05-05T10:51:35.113Z,2978.00
2023-05-05T10:52:24.735Z,2935.00
2023-05-05T10:53:23.726Z,2896.00
2023-05-05T10:54:23.818Z,2891.00
2023-05-05T10:55:23.702Z,2866.00
2023-05-05T10:56:23.696Z,2823.00
2023-05-05T10:57:23.716Z,2820.00
2023-05-05T10:58:23.697Z,2742.00
2023-05-05T10:59:23.674Z,2672.00
2023-05-05T11:00:23.678Z,2641.00
2023-05-05T11:01:23.695Z,2627.00
2023-05-05T11:02:23.765Z,2578.00
2023-05-05T11:03:23.744Z,2461.00
2023-05-05T11:04:23.649Z,2448.00
2023-05-05T11:05:23.637Z,2433.00
2023-05-05T11:06:23.642Z,2397.00
2023-05-05T11:07:23.636Z,2388.00
2023-05-05T11:08:23.614Z,2395.00
2023-05-05T11:09:23.627Z,2222.00
2023-05-05T11:10:23.666Z,2056.00
2023-05-05T11:11:23.753Z,1962.00
2023-05-05T11:12:23.611Z,1954.00
2023-05-05T11:13:23.724Z,1983.00
2023-05-05T11:14:23.605Z,1993.00
2023-05-05T11:15:23.764Z,2080.00
2023-05-05T11:16:23.644Z,2128.00
2023-05-05T11:17:23.574Z,2128.00
2023-05-05T11:18:23.570Z,1697.00
2023-05-05T11:19:23.553Z,1616.00
2023-05-05T11:20:23.734Z,1526.00
2023-05-05T11:21:23.574Z,1845.00
2023-05-05T11:22:23.544Z,2163.00
2023-05-05T11:23:23.529Z,2389.00
2023-05-05T11:24:23.545Z,2551.00
2023-05-05T11:25:23.552Z,2672.00
2023-05-05T11:26:23.583Z,2875.00
2023-05-05T11:27:23.788Z,2744.00
2023-05-05T11:28:23.664Z,2045.00
2023-05-05T11:29:23.688Z,2068.00
2023-05-05T11:30:23.703Z,2241.00
2023-05-05T11:31:23.767Z,2087.00
2023-05-05T11:32:23.817Z,2050.00
2023-05-05T11:33:23.839Z,2148.00
2023-05-05T11:34:23.875Z,1951.00
2023-05-05T11:35:23.949Z,1948.00
2023-05-05T11:36:24.000Z,2270.00
2023-05-05T11:37:24.014Z,1996.00
2023-05-05T11:38:24.063Z,2022.00
2023-05-05T11:39:24.108Z,2598.00
2023-05-05T11:40:24.150Z,2988.00
2023-05-05T11:41:24.204Z,2995.00
2023-05-05T11:42:24.255Z,2954.00
2023-05-05T11:43:24.406Z,3126.00
2023-05-05T11:44:24.335Z,3188.00
2023-05-05T11:45:24.399Z,3203.00
2023-05-05T11:46:24.469Z,3265.00
2023-05-05T11:47:24.456Z,3255.00
2023-05-05T11:48:24.483Z,3295.00
2023-05-05T11:49:24.534Z,3288.00
2023-05-05T11:50:24.588Z,3332.00
2023-05-05T11:51:24.617Z,3346.00
2023-05-05T11:52:24.657Z,3335.00
2023-05-05T11:53:24.689Z,3318.00
2023-05-05T11:54:24.745Z,3330.00
2023-05-05T11:55:24.789Z,3313.00
2023-05-05T11:56:24.821Z,3329.00
2023-05-05T11:57:24.858Z,3352.00
2023-05-05T11:58:24.923Z,3369.00
2023-05-05T11:59:25.048Z,3385.00
2023-05-05T12:00:24.999Z,3362.00
2023-05-05T12:01:25.044Z,3384.00
2023-05-05T12:02:25.191Z,3405.00
2023-05-05T12:03:25.315Z,3376.00
2023-05-05T12:04:25.206Z,3379.00
2023-05-05T12:05:25.231Z,3376.00
2023-05-05T12:06:25.297Z,3364.00
2023-05-05T12:07:25.319Z,3348.00
2023-05-05T12:08:25.363Z,3359.00
2023-05-05T12:09:25.406Z,3381.00
2023-05-05T12:10:25.426Z,3398.00